Portada
METAR-TAF:

METAR-TAF

Aeropuertos :

Aeropuerto Internacional Hato

Curazao, Antillas Neerlandesas

latitud: 12-12N, longitud: 068-58W, altitud: 9 m

Observación

El informe se hizo hace 1 hora y 3 minutos, a las 09:00 UTC
Viento 12 kt del este-sureste
Temperatura 26°C
Humedad 74%
Presión 1014 hPa
Visibilidad 10 km o más

METAR: TNCC 210900Z AUTO 11012KT 9999 NCD 26/21 Q1014 NOSIG

Hora: 06:03 (10:03 UTC)

Pronóstico

El informe se hizo hace 12 horas y 23 minutos, a las 21:40 UTC
Pronóstico válido del 21 a las 00 UTC al 22 a las 24 UTC
Viento 11 kt del este
Visibilidad 10 km o más
Escasas nubes a una altura de 2200 ft

TAF: TNCC 202140Z 2100/2224 09011KT 9999 FEW022

Observaciones y pronósticos meteorológicos de más de 4000 aeropuertos (mensajes METAR y TAF).

Los puntos amarillos y rojos representan las estaciones disponibles.

Ponga el ratón en el punto deseado para ver el nombre de la estación.

Haga clic para ver las observaciones y los pronósticos meteorológicos.

Para cambiar el mapa : haga clic en los botones verdes con una cruz de color negro para hacer un zoom, en el botón verde con un guión para alejar o en las flechas verdes para mapas adyacentes.


METAR-TAF: